Time;durP1;ratioP1;P1;durP2;ratioP2;P2;SDS_P1;SDS_P2;PMS_P1;PMS_P2;Temp;Humidity;BMP_temperature;BMP_pressure;BME280_temperature;BME280_humidity;BME280_pressure;Samples;Min_cycle;Max_cycle;Signal;HPM_P1;HPM_P2
2021/06/23 00:02:21;;;;;;;3.77;3.37;;;17.50;99.90;;;;;;4968187;28;20962;-75
2021/06/23 00:04:48;;;;;;;4.80;3.73;;;17.50;99.90;;;;;;4967821;28;20481;-74
2021/06/23 00:07:16;;;;;;;4.30;3.60;;;17.50;99.90;;;;;;4968247;28;20478;-74
2021/06/23 00:09:43;;;;;;;4.07;3.77;;;17.50;99.90;;;;;;4967077;28;21172;-74
2021/06/23 00:12:15;;;;;;;4.23;3.83;;;17.50;99.90;;;;;;4968183;28;20492;-74
2021/06/23 00:14:43;;;;;;;4.13;3.80;;;17.50;99.90;;;;;;4967599;28;20962;-75
2021/06/23 00:17:10;;;;;;;4.03;3.73;;;17.50;99.90;;;;;;4967996;28;20470;-74
2021/06/23 00:19:39;;;;;;;3.57;3.20;;;17.50;99.90;;;;;;4966292;28;20460;-74
2021/06/23 00:22:06;;;;;;;4.37;3.90;;;17.60;99.90;;;;;;4968116;28;20476;-74
2021/06/23 00:24:34;;;;;;;4.20;3.80;;;17.60;99.90;;;;;;4967575;28;20472;-74
2021/06/23 00:27:01;;;;;;;3.60;3.30;;;17.50;99.90;;;;;;4967350;28;20985;-74
2021/06/23 00:29:28;;;;;;;3.97;3.57;;;17.50;99.90;;;;;;4967186;28;20502;-74
2021/06/23 00:31:55;;;;;;;4.03;3.70;;;17.50;99.90;;;;;;4967812;28;20481;-75
2021/06/23 00:34:23;;;;;;;4.27;3.87;;;17.50;99.90;;;;;;5030065;23;20493;-69
2021/06/23 00:36:50;;;;;;;4.27;3.87;;;17.50;99.90;;;;;;4951297;29;20499;-69
2021/06/23 00:39:17;;;;;;;4.60;4.20;;;17.50;99.90;;;;;;4949854;29;20456;-69
2021/06/23 00:41:45;;;;;;;5.10;4.60;;;17.50;99.90;;;;;;4951787;29;20463;-69
2021/06/23 00:44:13;;;;;;;5.03;4.53;;;17.40;99.90;;;;;;4951769;29;20836;-68
2021/06/23 00:46:41;;;;;;;7.70;4.20;;;17.50;99.90;;;;;;4951746;28;20539;-69
2021/06/23 00:49:08;;;;;;;6.83;4.17;;;17.50;99.90;;;;;;4951969;29;20853;-69
2021/06/23 00:51:35;;;;;;;4.57;4.10;;;17.50;99.90;;;;;;4951503;28;20475;-69
2021/06/23 00:54:03;;;;;;;7.37;4.60;;;17.50;99.90;;;;;;4951976;29;20475;-67
2021/06/23 00:56:33;;;;;;;4.23;3.87;;;17.50;99.90;;;;;;4951574;29;20542;-69
2021/06/23 00:59:02;;;;;;;4.37;3.97;;;17.50;99.90;;;;;;4951713;29;20496;-69
2021/06/23 01:01:31;;;;;;;5.13;4.50;;;17.50;99.90;;;;;;4951256;29;20479;-68
2021/06/23 01:03:59;;;;;;;5.37;4.87;;;17.40;99.90;;;;;;4951958;28;20460;-69
2021/06/23 01:06:26;;;;;;;4.40;4.00;;;17.40;99.90;;;;;;4951560;29;20496;-70
2021/06/23 01:08:53;;;;;;;5.07;3.70;;;17.40;99.90;;;;;;4951464;29;21143;-70
2021/06/23 01:11:21;;;;;;;6.30;4.73;;;17.40;99.90;;;;;;4951179;29;20460;-70
2021/06/23 01:13:57;;;;;;;7.50;4.63;;;17.40;99.90;;;;;;4950987;29;20464;-70
2021/06/23 01:16:27;;;;;;;4.50;4.10;;;17.40;99.90;;;;;;4951554;29;20487;-70
2021/06/23 01:18:53;;;;;;;4.90;4.40;;;17.40;99.90;;;;;;4951578;28;20524;-71
2021/06/23 01:21:20;;;;;;;4.70;4.30;;;17.40;99.90;;;;;;4951022;29;20479;-70
2021/06/23 01:23:49;;;;;;;4.47;4.17;;;17.40;99.90;;;;;;4951401;29;20460;-71
2021/06/23 01:26:15;;;;;;;5.20;4.70;;;17.30;99.90;;;;;;4951290;29;20484;-70
2021/06/23 01:28:42;;;;;;;4.40;4.00;;;17.40;99.90;;;;;;4951466;29;20955;-70
2021/06/23 01:31:09;;;;;;;4.87;4.47;;;17.40;99.90;;;;;;4950345;28;20470;-70
2021/06/23 01:33:36;;;;;;;4.77;4.37;;;17.30;99.90;;;;;;4951552;29;20464;-71
2021/06/23 01:36:04;;;;;;;5.30;4.80;;;17.30;99.90;;;;;;4950971;29;20498;-69
2021/06/23 01:38:31;;;;;;;5.27;4.77;;;17.30;99.90;;;;;;4951446;29;21195;-70
2021/06/23 01:40:59;;;;;;;5.07;4.67;;;17.30;99.90;;;;;;4950802;29;20464;-70
2021/06/23 01:43:26;;;;;;;7.67;5.20;;;17.30;99.90;;;;;;4951214;28;20471;-69
2021/06/23 01:45:53;;;;;;;6.70;5.40;;;17.30;99.90;;;;;;4951266;28;20991;-71
2021/06/23 01:48:21;;;;;;;5.17;4.67;;;17.30;99.90;;;;;;4950953;29;20463;-71
2021/06/23 01:50:53;;;;;;;5.97;5.33;;;17.30;99.90;;;;;;4950936;29;20496;-70
2021/06/23 01:53:19;;;;;;;10.80;5.67;;;17.30;99.90;;;;;;4950893;29;21035;-70
2021/06/23 01:55:48;;;;;;;6.07;5.47;;;17.30;99.90;;;;;;4951411;29;21177;-71
2021/06/23 01:58:17;;;;;;;7.07;5.50;;;17.30;99.90;;;;;;4951012;29;20463;-68
2021/06/23 02:00:50;;;;;;;5.33;4.80;;;17.30;99.90;;;;;;4950600;29;20456;-71
2021/06/23 02:03:20;;;;;;;5.43;4.93;;;17.30;99.90;;;;;;4951150;29;20814;-70
2021/06/23 02:06:00;;;;;;;5.73;5.23;;;17.20;99.90;;;;;;4950824;29;21054;-71
2021/06/23 02:08:52;;;;;;;6.10;5.40;;;17.20;99.90;;;;;;4950893;29;20502;-71
2021/06/23 02:11:34;;;;;;;5.57;5.00;;;17.20;99.90;;;;;;4950409;28;20483;-71
2021/06/23 02:14:23;;;;;;;6.20;5.60;;;17.20;99.90;;;;;;4951069;28;20472;-71
2021/06/23 02:16:50;;;;;;;6.87;5.23;;;17.20;99.90;;;;;;4950985;29;20479;-71
2021/06/23 02:19:17;;;;;;;5.50;5.00;;;17.10;99.90;;;;;;4950622;29;20464;-71
2021/06/23 02:21:44;;;;;;;5.80;5.10;;;17.10;99.90;;;;;;4950868;29;20506;-71
2021/06/23 02:24:12;;;;;;;8.40;5.10;;;17.10;99.90;;;;;;4950505;29;20842;-71
2021/06/23 02:26:39;;;;;;;6.73;5.97;;;17.10;99.90;;;;;;4950876;29;20484;-70
2021/06/23 02:29:08;;;;;;;7.20;6.10;;;17.00;99.90;;;;;;4950492;29;20479;-70
2021/06/23 02:31:37;;;;;;;6.67;5.60;;;17.00;99.90;;;;;;4950542;29;21002;-71
2021/06/23 02:34:07;;;;;;;6.50;5.90;;;17.00;99.90;;;;;;4950491;29;20464;-71
2021/06/23 02:36:34;;;;;;;5.93;5.43;;;17.00;99.90;;;;;;4950861;29;20558;-70
2021/06/23 02:39:01;;;;;;;6.77;6.17;;;16.90;99.90;;;;;;4950851;29;20467;-70
2021/06/23 02:41:28;;;;;;;6.50;5.83;;;17.00;99.90;;;;;;4950302;29;20871;-71
2021/06/23 02:43:55;;;;;;;6.23;5.63;;;17.00;99.90;;;;;;4953260;28;20455;-71
2021/06/23 02:46:23;;;;;;;6.77;6.07;;;16.90;99.90;;;;;;4954068;29;20487;-70
2021/06/23 02:48:52;;;;;;;6.73;6.03;;;16.90;99.90;;;;;;4954453;29;20459;-70
2021/06/23 02:51:20;;;;;;;5.50;5.10;;;16.90;99.90;;;;;;4953590;28;20460;-70
2021/06/23 02:53:48;;;;;;;6.73;5.03;;;16.90;99.90;;;;;;4954376;28;20971;-70
2021/06/23 02:56:17;;;;;;;6.20;5.20;;;16.90;99.90;;;;;;4953943;29;20483;-70
2021/06/23 02:58:45;;;;;;;5.20;4.70;;;16.90;99.90;;;;;;4954061;29;20468;-70
2021/06/23 03:01:12;;;;;;;5.93;5.40;;;16.90;99.90;;;;;;4953390;29;20464;-71
2021/06/23 03:03:42;;;;;;;5.40;4.90;;;16.80;99.90;;;;;;4954167;29;20467;-70
2021/06/23 03:06:09;;;;;;;5.83;4.97;;;16.80;99.90;;;;;;4953775;29;21085;-71
2021/06/23 03:08:38;;;;;;;5.60;5.10;;;16.70;99.90;;;;;;4953893;29;20829;-71
2021/06/23 03:11:05;;;;;;;5.57;5.07;;;16.80;99.90;;;;;;4953206;29;20488;-70
2021/06/23 03:13:32;;;;;;;5.83;5.20;;;16.70;99.90;;;;;;4954087;29;20468;-70
2021/06/23 03:15:59;;;;;;;7.37;5.23;;;16.70;99.90;;;;;;4953513;29;20992;-70
2021/06/23 03:18:28;;;;;;;5.93;5.43;;;16.70;99.90;;;;;;4953747;28;20482;-70
2021/06/23 03:20:57;;;;;;;8.10;5.57;;;16.70;99.90;;;;;;4953131;29;20492;-71
2021/06/23 03:23:23;;;;;;;5.20;4.70;;;16.60;99.90;;;;;;4953580;28;20475;-70
2021/06/23 03:25:50;;;;;;;5.10;4.70;;;16.60;99.90;;;;;;4953524;29;20527;-70
2021/06/23 03:28:17;;;;;;;4.67;4.27;;;16.60;99.90;;;;;;4953587;29;20471;-70
2021/06/23 03:30:44;;;;;;;4.80;4.40;;;16.60;99.90;;;;;;4953037;29;20550;-70
2021/06/23 03:33:10;;;;;;;5.17;4.67;;;16.60;99.90;;;;;;4953110;29;20468;-70
2021/06/23 03:35:37;;;;;;;6.60;4.77;;;16.60;99.90;;;;;;4952390;29;20487;-70
2021/06/23 03:38:05;;;;;;;5.50;5.00;;;16.60;99.90;;;;;;4952866;29;20456;-70
2021/06/23 03:40:32;;;;;;;6.60;4.60;;;16.60;99.90;;;;;;4951529;29;20971;-70
2021/06/23 03:42:59;;;;;;;7.20;4.30;;;16.60;99.90;;;;;;4952569;29;20468;-70
2021/06/23 03:45:25;;;;;;;6.07;4.10;;;16.50;99.90;;;;;;4953103;28;20499;-69
2021/06/23 03:47:52;;;;;;;4.70;4.27;;;16.60;99.90;;;;;;4953391;29;20839;-70
2021/06/23 03:50:20;;;;;;;6.43;4.00;;;16.50;99.90;;;;;;4952601;29;20506;-70
2021/06/23 03:52:47;;;;;;;4.20;3.80;;;16.60;99.90;;;;;;4953055;29;20467;-69
2021/06/23 03:55:25;;;;;;;4.80;4.40;;;16.60;99.90;;;;;;4952504;28;20284;-68
2021/06/23 03:57:53;;;;;;;4.97;3.70;;;16.60;99.90;;;;;;4952763;28;20463;-68
2021/06/23 04:00:23;;;;;;;5.63;4.00;;;16.60;99.90;;;;;;4951715;28;20460;-70
2021/06/23 04:02:50;;;;;;;6.37;4.00;;;16.60;99.90;;;;;;4952127;28;20462;-69
2021/06/23 04:05:16;;;;;;;3.77;3.23;;;16.70;99.90;;;;;;4951578;29;20483;-69
2021/06/23 04:07:43;;;;;;;4.70;4.30;;;16.70;99.90;;;;;;4952447;28;21055;-68
2021/06/23 04:10:11;;;;;;;5.30;4.30;;;16.70;99.90;;;;;;4951551;28;20482;-69
2021/06/23 04:12:39;;;;;;;4.70;4.20;;;16.70;99.90;;;;;;4952528;28;20471;-67
2021/06/23 04:15:08;;;;;;;5.30;4.03;;;16.80;99.90;;;;;;4952599;29;20484;-69
2021/06/23 04:17:35;;;;;;;4.40;3.93;;;16.80;99.90;;;;;;4952800;28;20575;-69
2021/06/23 04:20:02;;;;;;;4.07;3.77;;;16.80;99.90;;;;;;4951873;28;20467;-69
2021/06/23 04:22:29;;;;;;;3.50;3.20;;;16.80;99.90;;;;;;4952611;28;20832;-69
2021/06/23 04:24:55;;;;;;;7.20;4.30;;;16.80;99.90;;;;;;4952524;28;20896;-70
2021/06/23 04:27:23;;;;;;;5.30;3.67;;;16.80;99.90;;;;;;4951607;28;20471;-69
2021/06/23 04:29:51;;;;;;;6.13;3.87;;;16.80;99.90;;;;;;4951235;29;20480;-69
2021/06/23 04:32:18;;;;;;;5.43;3.40;;;16.90;99.90;;;;;;4951104;28;20478;-69
2021/06/23 04:34:45;;;;;;;3.93;3.43;;;16.90;99.90;;;;;;4949967;28;20475;-69
2021/06/23 04:37:12;;;;;;;4.27;3.90;;;16.80;99.90;;;;;;4952321;28;20471;-69
2021/06/23 04:39:38;;;;;;;4.10;3.40;;;16.90;99.90;;;;;;4951844;28;20464;-69
2021/06/23 04:42:06;;;;;;;4.03;3.73;;;16.90;99.90;;;;;;4952259;28;21073;-69
2021/06/23 04:44:33;;;;;;;3.83;3.53;;;16.90;99.90;;;;;;4952391;28;20482;-69
2021/06/23 04:47:01;;;;;;;3.87;3.57;;;16.90;99.90;;;;;;4952292;28;20464;-69
2021/06/23 04:49:27;;;;;;;3.43;3.13;;;17.00;99.90;;;;;;4951537;28;20704;-69
2021/06/23 04:51:54;;;;;;;3.37;2.60;;;17.00;99.90;;;;;;4952173;28;20496;-69
2021/06/23 04:54:21;;;;;;;2.93;2.60;;;17.10;99.90;;;;;;4952028;28;20831;-69
2021/06/23 04:56:47;;;;;;;3.47;2.53;;;17.10;99.90;;;;;;4952106;28;20487;-69
2021/06/23 04:59:14;;;;;;;6.20;2.33;;;17.10;99.90;;;;;;4951469;28;20467;-69
2021/06/23 05:01:41;;;;;;;2.20;2.00;;;17.20;99.90;;;;;;4951702;28;20456;-69
2021/06/23 05:04:09;;;;;;;2.30;2.10;;;17.10;99.90;;;;;;4951797;28;20467;-69
2021/06/23 05:06:36;;;;;;;3.60;2.10;;;17.10;99.90;;;;;;4951304;28;20494;-69
2021/06/23 05:09:05;;;;;;;2.43;2.23;;;17.10;99.90;;;;;;4951783;28;20841;-69
2021/06/23 05:11:32;;;;;;;2.50;2.30;;;17.20;99.90;;;;;;4951298;28;20903;-69
2021/06/23 05:14:00;;;;;;;2.50;2.13;;;17.20;99.90;;;;;;4951931;28;20467;-70
2021/06/23 05:16:30;;;;;;;3.33;2.00;;;17.20;99.90;;;;;;4951546;28;20488;-69
2021/06/23 05:18:57;;;;;;;2.50;2.30;;;17.20;99.90;;;;;;4951578;28;20468;-69
2021/06/23 05:21:25;;;;;;;5.03;2.40;;;17.30;99.90;;;;;;4951139;28;20471;-70
2021/06/23 05:23:52;;;;;;;1.93;1.73;;;17.30;99.90;;;;;;4951869;28;20826;-70
2021/06/23 05:26:19;;;;;;;2.30;2.10;;;17.30;99.90;;;;;;4951391;28;20500;-69
2021/06/23 05:28:46;;;;;;;2.97;2.00;;;17.40;99.90;;;;;;4951469;28;20468;-71
2021/06/23 05:31:12;;;;;;;1.73;1.63;;;17.40;99.90;;;;;;4950759;28;20491;-70
2021/06/23 05:33:39;;;;;;;2.47;1.97;;;17.40;99.90;;;;;;4949793;28;20479;-70
2021/06/23 05:36:06;;;;;;;1.60;1.50;;;17.40;99.90;;;;;;4948710;28;20503;-70
2021/06/23 05:38:34;;;;;;;2.00;1.80;;;17.40;99.90;;;;;;4949298;28;20848;-70
2021/06/23 05:41:01;;;;;;;1.70;1.60;;;17.40;99.90;;;;;;4950768;28;20456;-70
2021/06/23 05:43:27;;;;;;;2.87;1.80;;;17.40;99.90;;;;;;4951413;28;20845;-68
2021/06/23 05:45:54;;;;;;;1.83;1.73;;;17.40;99.90;;;;;;4951608;28;20488;-69
2021/06/23 05:48:21;;;;;;;1.83;1.70;;;17.50;99.90;;;;;;4951214;28;20468;-70
2021/06/23 05:50:48;;;;;;;1.67;1.57;;;17.50;99.90;;;;;;4951423;28;20494;-70
2021/06/23 05:53:15;;;;;;;1.93;1.80;;;17.60;99.90;;;;;;4951426;28;20478;-70
2021/06/23 05:55:43;;;;;;;2.90;2.20;;;17.60;99.90;;;;;;4951533;28;20495;-70
2021/06/23 05:58:10;;;;;;;2.10;1.97;;;17.60;99.90;;;;;;4951722;28;20820;-69
2021/06/23 06:00:37;;;;;;;2.60;1.90;;;17.70;99.90;;;;;;4951038;28;20468;-70
2021/06/23 06:03:05;;;;;;;2.03;1.83;;;17.90;99.90;;;;;;4951515;28;20464;-70
2021/06/23 06:05:32;;;;;;;2.83;1.93;;;18.00;99.90;;;;;;4951268;28;20488;-70
2021/06/23 06:07:59;;;;;;;1.50;1.40;;;18.00;99.90;;;;;;4951700;28;20476;-70
2021/06/23 06:10:27;;;;;;;2.57;1.60;;;18.10;99.90;;;;;;4950673;28;20852;-69
2021/06/23 06:12:55;;;;;;;2.13;1.70;;;18.10;99.90;;;;;;4951603;28;20460;-69
2021/06/23 06:15:21;;;;;;;1.80;1.70;;;18.20;99.90;;;;;;4951167;28;20494;-70
2021/06/23 06:17:48;;;;;;;1.50;1.40;;;18.20;99.90;;;;;;4952271;28;20788;-69
2021/06/23 06:20:15;;;;;;;2.43;1.80;;;18.30;99.90;;;;;;4954483;28;20465;-69
2021/06/23 06:22:42;;;;;;;2.20;1.90;;;18.30;99.90;;;;;;4952786;28;20938;-70
2021/06/23 06:25:19;;;;;;;3.03;1.67;;;18.40;99.90;;;;;;4949606;28;20877;-67
2021/06/23 06:27:47;;;;;;;1.97;1.80;;;18.40;99.90;;;;;;4953798;28;20652;-67
2021/06/23 06:30:22;;;;;;;2.50;2.30;;;18.50;99.90;;;;;;4954415;28;20515;-69
2021/06/23 06:32:55;;;;;;;3.13;1.90;;;18.60;99.90;;;;;;4953782;29;20710;-69
2021/06/23 06:35:27;;;;;;;5.10;2.37;;;18.60;99.90;;;;;;4952612;28;21005;-68
2021/06/23 06:37:56;;;;;;;3.00;2.20;;;18.70;99.90;;;;;;4952525;28;20468;-69
2021/06/23 06:40:23;;;;;;;2.40;2.20;;;18.80;99.90;;;;;;4952790;28;20470;-68
2021/06/23 06:42:51;;;;;;;2.40;2.00;;;18.90;99.90;;;;;;4950177;28;20478;-69
2021/06/23 06:45:23;;;;;;;2.40;2.20;;;18.90;99.90;;;;;;4952134;28;20492;-67
2021/06/23 06:47:51;;;;;;;2.10;1.90;;;19.00;99.90;;;;;;4950289;29;20463;-67
2021/06/23 06:50:18;;;;;;;2.50;2.00;;;19.10;99.90;;;;;;4952422;28;20479;-68
2021/06/23 06:52:53;;;;;;;2.13;1.80;;;19.20;99.90;;;;;;4952282;28;20470;-68
2021/06/23 06:55:24;;;;;;;2.60;2.27;;;19.20;99.90;;;;;;4952177;28;20610;-66
2021/06/23 06:57:53;;;;;;;2.83;2.63;;;19.30;99.90;;;;;;4951775;29;20824;-66
2021/06/23 07:00:22;;;;;;;2.73;2.30;;;19.40;99.90;;;;;;4948015;28;20905;-67
2021/06/23 07:02:50;;;;;;;3.10;2.00;;;19.40;99.90;;;;;;4950793;28;20468;-67
2021/06/23 07:05:17;;;;;;;3.00;2.60;;;19.50;99.90;;;;;;5017703;23;20488;-73
2021/06/23 07:07:44;;;;;;;6.30;2.40;;;19.60;99.90;;;;;;4912290;29;20474;-73
2021/06/23 07:10:12;;;;;;;2.33;2.10;;;19.70;99.90;;;;;;4912362;29;20454;-72
2021/06/23 07:12:39;;;;;;;3.00;2.80;;;19.70;99.90;;;;;;4912520;29;20565;-72
2021/06/23 07:15:07;;;;;;;2.70;2.10;;;19.80;99.90;;;;;;4908246;29;20579;-73
2021/06/23 07:17:36;;;;;;;4.10;2.37;;;19.90;99.90;;;;;;4900098;29;20497;-73
2021/06/23 07:20:04;;;;;;;3.30;2.73;;;20.00;99.90;;;;;;4911841;29;21051;-72
2021/06/23 07:22:31;;;;;;;2.80;2.60;;;20.10;99.90;;;;;;4912194;29;21021;-73
2021/06/23 07:25:16;;;;;;;2.70;2.50;;;20.20;99.90;;;;;;4902016;29;20550;-74
2021/06/23 07:27:43;;;;;;;2.93;2.63;;;20.30;99.90;;;;;;4896355;29;20557;-72
2021/06/23 07:30:13;;;;;;;2.50;2.13;;;20.40;99.90;;;;;;4905571;29;20965;-70
2021/06/23 07:32:50;;;;;;;2.53;2.33;;;20.50;99.90;;;;;;4907095;29;20482;-72
2021/06/23 07:38:07;;;;;;;2.67;2.47;;;20.70;99.90;;;;;;4904747;29;20444;-72
2021/06/23 07:40:50;;;;;;;2.87;2.53;;;20.80;99.90;;;;;;4902935;29;20996;-72
2021/06/23 07:43:23;;;;;;;4.33;2.70;;;20.80;99.90;;;;;;4906396;29;20470;-72
2021/06/23 07:45:57;;;;;;;2.53;2.33;;;20.80;99.90;;;;;;4905099;29;20493;-71
2021/06/23 07:48:39;;;;;;;2.63;2.43;;;20.90;99.90;;;;;;4900742;29;21010;-72
2021/06/23 07:51:16;;;;;;;2.77;2.57;;;20.90;99.90;;;;;;4901894;29;20478;-72
2021/06/23 07:56:50;;;;;;;2.50;2.30;;;20.80;99.90;;;;;;4892165;29;20474;-72
2021/06/23 08:10:27;;;;;;;2.83;1.97;;;21.10;99.90;;;;;;4902225;29;20437;-72
2021/06/23 08:12:58;;;;;;;2.53;2.20;;;21.20;99.90;;;;;;4903142;29;20898;-72
2021/06/23 08:15:32;;;;;;;3.60;2.40;;;21.30;99.90;;;;;;4903423;29;20492;-72
2021/06/23 08:18:02;;;;;;;2.27;2.03;;;21.20;99.90;;;;;;4901193;29;20817;-73
2021/06/23 08:20:39;;;;;;;2.20;2.00;;;21.20;99.90;;;;;;4893571;29;21539;-73
2021/06/23 08:23:21;;;;;;;2.30;2.10;;;21.10;99.90;;;;;;4901311;29;20543;-72
2021/06/23 08:25:50;;;;;;;2.77;2.10;;;21.20;99.90;;;;;;4903053;29;20569;-72
2021/06/23 08:28:28;;;;;;;2.10;2.00;;;21.10;99.90;;;;;;4907021;29;20458;-72
2021/06/23 08:30:56;;;;;;;2.67;2.20;;;21.20;99.90;;;;;;4902356;29;20957;-73
2021/06/23 08:33:26;;;;;;;2.43;2.23;;;21.20;99.90;;;;;;4895668;29;20515;-73
2021/06/23 08:35:55;;;;;;;2.83;2.20;;;21.20;99.90;;;;;;4907657;29;20489;-72
2021/06/23 08:38:23;;;;;;;2.23;2.03;;;21.20;99.90;;;;;;4897846;29;20471;-72
2021/06/23 08:40:51;;;;;;;2.00;1.80;;;21.30;99.90;;;;;;4894765;29;20562;-72
2021/06/23 08:43:20;;;;;;;2.47;2.27;;;21.30;99.90;;;;;;4903742;29;21005;-72
2021/06/23 08:45:47;;;;;;;3.77;1.90;;;21.40;99.90;;;;;;4904441;29;20493;-73
2021/06/23 08:48:14;;;;;;;2.57;2.37;;;21.50;99.90;;;;;;4897440;29;20465;-73
2021/06/23 08:50:41;;;;;;;2.50;1.83;;;21.70;99.90;;;;;;4903007;29;20470;-74
2021/06/23 08:53:10;;;;;;;2.10;1.90;;;21.90;99.90;;;;;;4902244;29;20490;-73
2021/06/23 08:55:38;;;;;;;2.40;2.20;;;22.10;99.90;;;;;;4899654;29;20481;-72
2021/06/23 08:58:07;;;;;;;3.90;2.30;;;22.30;99.90;;;;;;4901608;29;20530;-72
2021/06/23 09:00:34;;;;;;;2.40;2.20;;;22.40;99.90;;;;;;4900423;29;20466;-75
2021/06/23 09:03:02;;;;;;;2.33;2.13;;;22.50;99.90;;;;;;4899622;29;20530;-75
2021/06/23 09:05:47;;;;;;;2.83;1.97;;;22.40;99.90;;;;;;4901511;29;20486;-75
2021/06/23 09:08:29;;;;;;;2.40;2.03;;;22.40;99.90;;;;;;4899191;29;20455;-73
2021/06/23 09:10:56;;;;;;;2.07;1.87;;;22.40;99.90;;;;;;4899355;29;20548;-74
2021/06/23 09:13:23;;;;;;;2.33;2.13;;;22.40;99.90;;;;;;4896646;29;20475;-73
2021/06/23 09:15:53;;;;;;;3.50;2.13;;;22.60;99.90;;;;;;4900971;29;20482;-74
2021/06/23 09:18:21;;;;;;;1.97;1.73;;;22.70;99.90;;;;;;4901355;29;20466;-74
2021/06/23 09:20:51;;;;;;;2.80;2.03;;;22.70;99.90;;;;;;4899160;29;21002;-74
2021/06/23 09:23:37;;;;;;;2.30;1.77;;;22.60;99.90;;;;;;4900339;29;21017;-74
2021/06/23 09:26:15;;;;;;;2.70;2.10;;;22.60;99.90;;;;;;4899976;29;20847;-73
2021/06/23 09:28:43;;;;;;;3.53;1.87;;;22.80;99.90;;;;;;4893644;29;20470;-73
2021/06/23 09:31:10;;;;;;;1.77;1.60;;;22.80;99.90;;;;;;4906063;29;20984;-74
2021/06/23 09:33:37;;;;;;;2.33;2.13;;;22.70;99.90;;;;;;4896796;29;20462;-73
2021/06/23 09:36:07;;;;;;;2.17;1.80;;;22.70;99.90;;;;;;4876993;29;20471;-73
2021/06/23 09:38:44;;;;;;;2.70;1.80;;;22.80;99.90;;;;;;4890199;29;20807;-73
2021/06/23 09:41:26;;;;;;;2.00;1.80;;;22.70;99.90;;;;;;4890202;29;20466;-73
2021/06/23 09:43:55;;;;;;;2.00;1.80;;;22.60;99.90;;;;;;4887547;29;20474;-74
2021/06/23 09:46:24;;;;;;;2.37;1.80;;;22.50;99.90;;;;;;4884687;29;20482;-73
2021/06/23 09:49:02;;;;;;;2.43;1.90;;;22.50;99.90;;;;;;4874237;29;20472;-74
2021/06/23 09:51:29;;;;;;;2.23;1.60;;;22.50;99.90;;;;;;4877019;29;20494;-73
2021/06/23 09:54:03;;;;;;;2.67;1.50;;;22.50;99.90;;;;;;4877699;29;20716;-73
2021/06/23 09:56:34;;;;;;;1.50;1.40;;;22.70;99.90;;;;;;4874704;29;20621;-74
2021/06/23 09:59:01;;;;;;;1.87;1.77;;;22.70;99.90;;;;;;4871060;29;20500;-74
2021/06/23 10:01:30;;;;;;;2.73;1.63;;;22.80;99.90;;;;;;4871532;29;20575;-73
2021/06/23 10:04:00;;;;;;;1.93;1.73;;;22.70;99.90;;;;;;4885212;29;20970;-74
2021/06/23 10:06:28;;;;;;;2.10;1.90;;;22.70;99.90;;;;;;4886452;29;20865;-74
2021/06/23 10:09:18;;;;;;;3.00;2.33;;;22.80;99.90;;;;;;4875713;29;20471;-74
2021/06/23 10:11:46;;;;;;;2.57;2.30;;;22.80;99.90;;;;;;4875039;29;20492;-74
2021/06/23 10:14:12;;;;;;;3.10;2.07;;;22.90;99.90;;;;;;4883042;29;20472;-74
2021/06/23 10:16:39;;;;;;;2.80;1.77;;;22.90;99.90;;;;;;4875562;29;21042;-74
2021/06/23 10:19:07;;;;;;;2.03;1.90;;;23.00;99.90;;;;;;4881013;29;20506;-73
2021/06/23 10:21:35;;;;;;;2.20;2.00;;;23.20;99.90;;;;;;4881117;29;20469;-74
2021/06/23 10:24:05;;;;;;;2.50;2.30;;;23.40;99.90;;;;;;4890280;29;20464;-73
2021/06/23 10:26:33;;;;;;;2.40;2.20;;;23.60;99.90;;;;;;4877566;29;20490;-74
2021/06/23 10:29:00;;;;;;;2.60;2.37;;;23.80;99.90;;;;;;4870592;29;20956;-74
2021/06/23 10:31:28;;;;;;;3.10;2.90;;;23.80;99.90;;;;;;4870345;29;20485;-73
2021/06/23 10:33:55;;;;;;;2.80;2.40;;;23.90;99.90;;;;;;4876368;29;20477;-74
2021/06/23 10:36:24;;;;;;;2.27;2.00;;;24.00;99.90;;;;;;4880036;29;21014;-74
2021/06/23 10:38:52;;;;;;;2.17;1.50;;;24.10;99.90;;;;;;4880504;29;20487;-73
2021/06/23 10:41:19;;;;;;;1.63;1.53;;;24.20;99.90;;;;;;4872888;29;22347;-73
2021/06/23 10:46:40;;;;;;;1.67;1.50;;;24.20;99.90;;;;;;5060870;27;20543;-74
2021/06/23 10:49:06;;;;;;;1.60;1.13;;;24.50;99.90;;;;;;5049544;28;20855;-74
2021/06/23 10:51:34;;;;;;;1.70;1.40;;;24.60;99.90;;;;;;5044147;28;20892;-74
2021/06/23 10:54:06;;;;;;;2.00;1.80;;;24.60;99.90;;;;;;5043958;28;20467;-74
2021/06/23 10:56:43;;;;;;;2.30;2.10;;;24.60;99.90;;;;;;5042960;28;20476;-74
2021/06/23 10:59:32;;;;;;;1.97;1.40;;;24.60;99.90;;;;;;5043366;28;20459;-74
2021/06/23 11:02:09;;;;;;;1.63;1.20;;;24.60;99.90;;;;;;5043717;28;20527;-74
2021/06/23 11:05:10;;;;;;;1.10;1.00;;;24.60;99.90;;;;;;5042479;28;20482;-74
2021/06/23 11:07:38;;;;;;;1.37;1.10;;;24.60;99.90;;;;;;5043383;28;20503;-73
2021/06/23 11:10:30;;;;;;;1.40;1.00;;;24.70;99.90;;;;;;5043243;28;20459;-74
2021/06/23 11:12:59;;;;;;;2.30;1.20;;;24.80;99.90;;;;;;5043403;28;20819;-74
2021/06/23 11:15:36;;;;;;;0.97;0.83;;;24.80;99.90;;;;;;5043995;28;20478;-74
2021/06/23 11:18:27;;;;;;;1.43;1.00;;;24.80;99.90;;;;;;5052167;28;20549;-73
2021/06/23 11:20:57;;;;;;;1.30;0.97;;;24.90;99.90;;;;;;5053539;28;20459;-74
2021/06/23 11:23:45;;;;;;;5.03;1.60;;;25.00;99.90;;;;;;5054678;28;20462;-73
2021/06/23 11:26:49;;;;;;;19.37;3.63;;;25.00;99.90;;;;;;5053707;28;20573;-73
2021/06/23 11:29:37;;;;;;;1.80;1.20;;;25.00;99.90;;;;;;5055355;28;20876;-74
2021/06/23 11:32:09;;;;;;;1.90;1.20;;;25.00;99.90;;;;;;5052486;28;20553;-74
2021/06/23 11:34:55;;;;;;;1.20;1.03;;;25.00;99.90;;;;;;5053260;28;20466;-73
2021/06/23 11:37:24;;;;;;;3.03;0.97;;;25.10;99.90;;;;;;5054028;28;20451;-73
2021/06/23 11:39:51;;;;;;;1.30;0.93;;;25.10;99.90;;;;;;5054553;28;20458;-74
2021/06/23 11:42:19;;;;;;;1.53;0.93;;;25.20;99.90;;;;;;5056234;28;20452;-73
2021/06/23 11:44:46;;;;;;;1.93;1.00;;;25.30;99.90;;;;;;5054560;28;20467;-74
2021/06/23 11:47:13;;;;;;;1.57;1.23;;;25.30;99.90;;;;;;5055350;28;20455;-74
2021/06/23 11:49:40;;;;;;;1.20;1.10;;;25.40;99.90;;;;;;5055063;28;20468;-74
2021/06/23 11:52:09;;;;;;;1.40;1.20;;;25.50;99.90;;;;;;5054392;28;20463;-74
2021/06/23 11:54:36;;;;;;;1.43;1.10;;;25.50;99.90;;;;;;5053861;28;20494;-74
2021/06/23 11:57:04;;;;;;;1.27;1.00;;;25.60;99.90;;;;;;5044964;28;20460;-73
2021/06/23 11:59:31;;;;;;;1.63;1.07;;;25.60;99.90;;;;;;5032327;28;20464;-73
2021/06/23 12:01:58;;;;;;;1.20;1.00;;;25.50;99.90;;;;;;5051196;28;20459;-73
2021/06/23 12:04:26;;;;;;;1.10;1.00;;;25.60;99.90;;;;;;5051909;28;20451;-73
2021/06/23 12:06:53;;;;;;;1.80;1.10;;;25.60;99.90;;;;;;5050551;28;20487;-73
2021/06/23 12:09:21;;;;;;;1.30;1.00;;;25.80;99.90;;;;;;5051027;28;20456;-73
2021/06/23 12:11:48;;;;;;;1.37;1.27;;;25.70;99.90;;;;;;5050877;28;20452;-72
2021/06/23 12:14:15;;;;;;;1.10;0.87;;;25.90;99.90;;;;;;5050947;28;20455;-73
2021/06/23 12:16:41;;;;;;;2.90;1.23;;;26.00;99.90;;;;;;5050456;28;20482;-73
2021/06/23 12:19:10;;;;;;;1.10;1.00;;;26.00;99.90;;;;;;5050255;28;20463;-73
2021/06/23 12:21:36;;;;;;;1.23;1.10;;;26.10;99.90;;;;;;5050327;28;20954;-73
2021/06/23 12:24:04;;;;;;;1.00;0.90;;;26.30;99.90;;;;;;5050237;28;20466;-73
2021/06/23 12:26:32;;;;;;;1.30;1.20;;;26.20;99.90;;;;;;5046265;28;20494;-73
2021/06/23 12:28:58;;;;;;;1.00;0.90;;;26.20;99.90;;;;;;5047727;28;21022;-73
2021/06/23 12:31:25;;;;;;;1.83;1.20;;;26.10;99.90;;;;;;5041321;28;20521;-73
2021/06/23 12:33:52;;;;;;;1.97;0.97;;;26.10;99.90;;;;;;5040558;28;20473;-73
2021/06/23 12:36:19;;;;;;;3.50;1.20;;;26.20;99.90;;;;;;5039916;28;20486;-73
2021/06/23 12:38:45;;;;;;;1.40;1.10;;;26.20;99.90;;;;;;5041909;28;20467;-73
2021/06/23 12:41:12;;;;;;;1.67;1.27;;;26.40;99.90;;;;;;5039381;28;20467;-73
2021/06/23 12:43:41;;;;;;;1.70;1.30;;;26.50;99.90;;;;;;5040861;28;20452;-72
2021/06/23 12:46:08;;;;;;;1.13;1.03;;;26.60;99.90;;;;;;5041209;28;20867;-74
2021/06/23 12:48:34;;;;;;;1.20;1.07;;;26.70;99.90;;;;;;5039915;28;20463;-73
2021/06/23 12:51:01;;;;;;;1.17;1.07;;;26.80;99.90;;;;;;5039599;28;20452;-73
2021/06/23 12:53:28;;;;;;;2.30;1.50;;;27.00;99.90;;;;;;5041370;28;20486;-74
2021/06/23 12:55:55;;;;;;;2.07;1.37;;;27.00;99.90;;;;;;5039364;28;20479;-74
2021/06/23 12:58:21;;;;;;;1.13;1.03;;;27.00;99.90;;;;;;5040110;28;20463;-73
2021/06/23 13:00:49;;;;;;;1.30;1.00;;;27.10;99.90;;;;;;5040757;28;20879;-73
2021/06/23 13:03:19;;;;;;;2.50;2.30;;;27.10;99.90;;;;;;5039872;28;20461;-73
2021/06/23 13:05:46;;;;;;;2.50;1.40;;;26.90;99.90;;;;;;5103519;22;20512;-70
2021/06/23 13:08:12;;;;;;;1.27;1.10;;;26.70;99.90;;;;;;5050262;28;20452;-69
2021/06/23 13:10:39;;;;;;;2.73;1.70;;;26.60;99.90;;;;;;5049217;28;20835;-69
2021/06/23 13:13:06;;;;;;;1.40;1.20;;;26.40;99.90;;;;;;5049640;28;20464;-69
2021/06/23 13:15:33;;;;;;;1.87;1.17;;;26.10;99.90;;;;;;5049860;28;20539;-69
2021/06/23 13:18:01;;;;;;;1.30;1.20;;;25.90;99.90;;;;;;5044865;28;20963;-69
2021/06/23 13:20:28;;;;;;;2.37;1.33;;;25.60;99.90;;;;;;5031989;28;20465;-68